Aérodrome :
LOGIN :

S'inscrire | Disclaimer

   EN    FR    IT 

 










Légende :    VFR   VFR Marginal   IFR   IFR Intensif   IFR Très Intensif
Visi : 
Plafond : 
>= 8 km
>= 3000ft
5 à 8 km
1000 à 3000 ft
1500m à 5 km
500 à 1000 ft
800 à 1500m
200 à 500 ft
< 800m
< 200 ft
Symboles :   Orages  Brouillard  Fortes neiges  Fortes précipitations  Vent > 20 kt
SIGMETs :   Divers  Orages  Givrage  Turbulence  Onde Orograph.  Cendres Volcan.







- Altitude de l'aérodrome : 191 ft
- Code IATA : RNB


ESDF - Ronneby

DERNIER METAR :
  • 141450Z 22007KT 180V260 9999 SCT033 23/16 Q1005

METARs EXPIRÉS :
  • 141420Z 24005KT 190V280 9999 FEW022 SCT032 22/16 Q1005
  • 141350Z 25006KT 210V290 9999 FEW022 SCT030 22/16 Q1005
  • 141320Z 21007KT 180V250 9999 SCT020 SCT030 21/18 Q1005
  • 141250Z 22010KT 190V250 9999 SCT020TCU SCT029 22/18 Q1005
  • 141220Z 21011KT 190V250 9999 FEW022 SCT028 23/18 Q1005

TAF TAF ESDF
Valide du 14 à 15h jusqu'au 14 à 22h UTC


141430Z 1415/1422 25006KT 9999 SCT020
PROB40 1415/1422 BKN012
Pas de NOTAMs connus pour ce terrain.
3 SIGMETs publiés pour la FIR Sweden (ESAA) :
 
Orages noyés dans la masse
ESAA SIGMET 4 VALID 141420/141620 ESSA
ESAA SWEDEN FIR EMBD TS FCST WI N5857 E01514 - N5753 E01423 - N5730 E01535 - N5749 E01646 - N5845 E01702 - N5910 E01631 - N5857 E01514 TOP FL340 MOV N 20 KT NC=
Annulation du SIGMET 2 
ESAA SIGMET 3 VALID 141416/141610 ESSA
ESAA SWEDEN FIR CNL SIGMET 2 141410/141610=
SIGMET 2  ANNULÉ :
ESAA SIGMET 2 VALID 141410/141610 ESSA
ESAA SWEDEN FIR FCST N5850 E01506 - N5753 E01421 - N5740 E01527 - N5759 E01652 - N5853 E01712 - N5903 E01618 - N5850 E01506 TOP FL340 MOV N 20 KT NC=



MET'MAP, la Météo Aéronautique d'un coup d'oeil ! - Copyright ORBIFLY Décembre 2007 - Disclaimer

ORBIFLY MET'MAP TEAM :

Programmation & Développement : Alexandra Zaïnal
Conception & Développement : Baudouin d'Aumeries
Co-Programmation & Développement : Marc-Olivier Méhu
Soutien technique & logistique : Manuel Goepfert

Contact : metmap@orbifly.com




SOURCES & CREDITS :

   NOAA